Time;durP1;ratioP1;P1;durP2;ratioP2;P2;SDS_P1;SDS_P2;PMS_P1;PMS_P2;Temp;Humidity;BMP_temperature;BMP_pressure;BME280_temperature;BME280_humidity;BME280_pressure;Samples;Min_cycle;Max_cycle;Signal;HPM_P1;HPM_P2
2023/04/03 00:01:24;;;;;;;6.53;3.47;;;;;;;9.64;66.15;99428.16;5065779;28;20044;-28
2023/04/03 00:03:49;;;;;;;5.57;2.78;;;;;;;9.65;66.98;99435.94;5067173;28;20036;-28
2023/04/03 00:06:15;;;;;;;3.83;2.25;;;;;;;9.97;64.90;99427.66;5069978;28;20032;-27
2023/04/03 00:08:40;;;;;;;6.47;3.15;;;;;;;8.61;69.59;99424.63;5069976;28;20025;-28
2023/04/03 00:11:07;;;;;;;7.25;3.95;;;;;;;8.13;70.06;99425.28;5069841;28;20302;-28
2023/04/03 00:13:32;;;;;;;13.20;5.22;;;;;;;8.22;70.07;99416.00;5070129;28;20024;-28
2023/04/03 00:15:58;;;;;;;18.65;9.63;;;;;;;8.91;68.03;99421.19;5069992;28;20032;-27
2023/04/03 00:18:24;;;;;;;19.52;10.07;;;;;;;9.03;67.82;99422.06;5069612;28;20103;-28
2023/04/03 00:20:49;;;;;;;15.95;8.20;;;;;;;9.07;67.78;99415.25;5069672;28;20082;-27
2023/04/03 00:23:15;;;;;;;17.80;8.88;;;;;;;9.13;68.36;99422.34;5069837;28;20027;-26
2023/04/03 00:25:41;;;;;;;13.75;6.93;;;;;;;9.11;68.46;99413.78;5069519;28;20698;-27
2023/04/03 00:28:06;;;;;;;10.95;5.60;;;;;;;8.98;68.80;99413.97;5069556;28;20025;-27
2023/04/03 00:30:32;;;;;;;9.75;5.13;;;;;;;9.26;67.76;99392.09;5069588;28;20444;-27
2023/04/03 00:32:57;;;;;;;8.75;4.97;;;;;;;9.38;67.73;99414.22;5069691;28;20028;-27
2023/04/03 00:35:24;;;;;;;9.00;4.32;;;;;;;9.30;68.54;99416.41;5069428;28;20034;-28
2023/04/03 00:37:53;;;;;;;8.02;3.88;;;;;;;8.92;69.52;99412.19;5069459;28;20020;-28
2023/04/03 00:40:20;;;;;;;8.93;4.03;;;;;;;9.24;68.91;99418.13;5069215;28;20028;-28
2023/04/03 00:42:47;;;;;;;6.32;3.38;;;;;;;9.27;68.07;99422.16;5069296;28;20024;-30
2023/04/03 00:45:31;;;;;;;8.27;3.53;;;;;;;9.07;68.08;99409.13;5069438;28;20111;-28
2023/04/03 00:47:59;;;;;;;8.90;4.03;;;;;;;9.38;67.11;99421.41;5069006;28;20036;-27
2023/04/03 00:50:26;;;;;;;11.48;4.68;;;;;;;9.16;67.60;99416.56;5069432;28;20130;-28
2023/04/03 00:52:52;;;;;;;12.15;6.57;;;;;;;8.45;69.75;99426.00;5068977;28;20029;-27
2023/04/03 00:55:18;;;;;;;13.32;6.15;;;;;;;8.83;68.61;99425.78;5068968;28;20035;-28
2023/04/03 00:57:45;;;;;;;16.00;6.35;;;;;;;8.91;68.75;99429.16;5068913;28;20495;-27
2023/04/03 01:00:16;;;;;;;12.02;6.53;;;;;;;8.91;68.43;99391.94;5069165;28;20060;-27
2023/04/03 01:02:42;;;;;;;12.25;6.20;;;;;;;9.24;67.60;99437.53;5069105;28;20024;-27
2023/04/03 01:05:08;;;;;;;12.00;6.38;;;;;;;8.44;70.16;99427.06;5069033;28;20025;-27
2023/04/03 01:07:36;;;;;;;18.15;10.13;;;;;;;8.47;70.29;99425.81;5068694;28;20111;-27
2023/04/03 01:10:06;;;;;;;14.75;6.43;;;;;;;8.09;71.62;99421.44;5068976;28;20071;-27
2023/04/03 01:12:37;;;;;;;9.43;5.63;;;;;;;8.27;70.41;99412.69;5069023;28;20028;-28
2023/04/03 01:15:06;;;;;;;12.52;6.45;;;;;;;8.69;68.62;99419.00;5067715;28;20029;-27
2023/04/03 01:17:38;;;;;;;13.30;6.13;;;;;;;8.24;69.77;99416.59;5068535;28;20089;-27
2023/04/03 01:20:31;;;;;;;10.75;5.60;;;;;;;7.56;71.88;99415.53;5068892;28;20036;-27
2023/04/03 01:23:08;;;;;;;9.70;4.70;;;;;;;8.00;70.11;99421.69;5068451;28;20040;-27
2023/04/03 01:25:36;;;;;;;9.73;5.10;;;;;;;7.96;70.98;99431.13;5068427;28;20610;-25
2023/04/03 01:28:03;;;;;;;10.00;4.78;;;;;;;7.99;70.52;99421.94;5068292;28;20061;-27
2023/04/03 01:30:32;;;;;;;6.82;3.63;;;;;;;8.12;70.25;99423.66;5068594;28;20056;-27
2023/04/03 01:32:57;;;;;;;5.60;2.90;;;;;;;8.02;72.38;99417.00;5068265;28;20111;-27
2023/04/03 01:35:23;;;;;;;7.10;3.10;;;;;;;8.30;71.30;99407.75;5068535;28;20115;-27
2023/04/03 01:37:49;;;;;;;5.68;2.80;;;;;;;8.26;71.43;99419.84;5068116;28;20126;-27
2023/04/03 01:40:14;;;;;;;4.55;2.70;;;;;;;8.27;71.80;99421.44;5068292;28;20017;-27
2023/04/03 01:42:40;;;;;;;6.63;3.17;;;;;;;8.21;72.95;99419.69;5068084;28;20032;-28
2023/04/03 01:45:05;;;;;;;5.70;2.90;;;;;;;8.38;72.98;99411.97;5068071;28;20719;-27
2023/04/03 01:47:31;;;;;;;5.28;2.88;;;;;;;8.47;72.92;99413.31;5068385;28;20032;-27
2023/04/03 01:49:56;;;;;;;6.22;2.95;;;;;;;8.48;72.33;99408.81;5068126;28;20055;-27
2023/04/03 01:52:22;;;;;;;4.93;2.70;;;;;;;8.32;73.66;99413.66;5068004;28;20039;-27
2023/04/03 01:54:47;;;;;;;7.13;2.90;;;;;;;8.15;74.18;99413.41;5049848;28;20031;-27
2023/04/03 01:57:14;;;;;;;5.38;2.80;;;;;;;7.75;75.22;99431.53;5067986;28;20032;-28
2023/04/03 01:59:40;;;;;;;5.70;3.22;;;;;;;6.94;76.61;99433.00;5067658;28;20733;-27
2023/04/03 02:02:05;;;;;;;5.75;2.72;;;;;;;7.12;77.10;99432.31;5067947;28;20055;-27
2023/04/03 02:04:31;;;;;;;5.10;3.08;;;;;;;7.58;75.22;99431.22;5067923;28;20029;-28
2023/04/03 02:06:56;;;;;;;6.15;2.90;;;;;;;7.74;75.11;99440.50;5067825;28;20052;-27
2023/04/03 02:09:22;;;;;;;7.32;2.92;;;;;;;8.03;73.77;99434.56;5067794;28;20024;-26
2023/04/03 02:11:47;;;;;;;5.05;2.78;;;;;;;7.88;74.09;99436.72;5067502;28;20025;-26
2023/04/03 02:14:13;;;;;;;5.32;2.90;;;;;;;8.02;74.21;99440.88;5067750;28;20503;-26
2023/04/03 02:16:38;;;;;;;7.82;2.83;;;;;;;7.97;74.31;99435.44;5067402;28;20067;-26
2023/04/03 02:19:04;;;;;;;6.80;2.85;;;;;;;8.30;72.95;99433.50;5067628;28;20017;-26
2023/04/03 02:21:29;;;;;;;5.47;2.78;;;;;;;8.42;71.80;99429.94;5067605;28;20021;-26
2023/04/03 02:23:55;;;;;;;5.97;3.25;;;;;;;7.93;74.74;99434.25;5067440;28;20388;-26
2023/04/03 02:26:20;;;;;;;5.50;2.72;;;;;;;8.14;73.34;99432.22;5066969;28;20416;-26
2023/04/03 02:28:46;;;;;;;7.15;3.17;;;;;;;8.14;73.77;99426.91;5067177;28;20484;-26
2023/04/03 02:31:12;;;;;;;6.57;3.08;;;;;;;7.85;75.03;99432.66;5067439;28;20032;-27
2023/04/03 02:33:37;;;;;;;6.68;3.53;;;;;;;8.30;73.32;99434.31;5067241;28;20033;-26
2023/04/03 02:36:07;;;;;;;7.22;3.28;;;;;;;8.26;72.22;99427.81;5067217;28;20025;-26
2023/04/03 02:38:33;;;;;;;9.25;3.55;;;;;;;8.14;72.31;99432.22;5066895;28;20055;-26
2023/04/03 02:41:07;;;;;;;5.10;3.22;;;;;;;7.95;72.11;99410.94;5067030;28;20418;-27
2023/04/03 02:43:33;;;;;;;7.13;3.20;;;;;;;8.08;71.96;99430.44;5066896;28;20454;-26
2023/04/03 02:45:58;;;;;;;5.82;3.10;;;;;;;7.92;72.69;99432.59;5067266;28;20069;-27
2023/04/03 02:48:24;;;;;;;6.18;3.20;;;;;;;7.77;73.29;99440.09;5066714;28;20046;-26
2023/04/03 02:50:50;;;;;;;5.00;2.75;;;;;;;7.97;72.53;99430.13;5066858;28;20450;-26
2023/04/03 02:53:15;;;;;;;6.40;3.72;;;;;;;7.41;72.72;99433.56;5067058;28;20025;-26
2023/04/03 02:55:41;;;;;;;8.93;4.57;;;;;;;6.97;75.77;99435.25;5066505;28;20020;-25
2023/04/03 02:58:07;;;;;;;6.35;3.40;;;;;;;7.61;72.97;99434.25;5066770;28;20086;-26
2023/04/03 03:00:32;;;;;;;7.15;3.25;;;;;;;7.54;74.00;99433.50;5066406;28;20048;-27
2023/04/03 03:02:58;;;;;;;7.70;2.80;;;;;;;6.72;73.72;99443.06;5067133;28;20130;-26
2023/04/03 03:05:24;;;;;;;11.27;5.20;;;;;;;5.88;75.11;99437.47;5066429;28;20048;-26
2023/04/03 03:07:50;;;;;;;45.20;17.90;;;;;;;6.53;73.83;99427.03;5066560;28;20036;-26
2023/04/03 03:10:15;;;;;;;55.17;22.70;;;;;;;6.56;74.92;99429.28;5066268;28;20030;-26
2023/04/03 03:12:40;;;;;;;17.17;7.53;;;;;;;6.65;74.94;99421.91;5066495;28;20024;-26
2023/04/03 03:15:07;;;;;;;11.30;5.40;;;;;;;6.84;75.53;99422.84;5066719;28;20030;-26
2023/04/03 03:17:32;;;;;;;8.10;4.22;;;;;;;6.99;75.09;99412.00;5066555;28;20025;-26
2023/04/03 03:19:58;;;;;;;5.90;3.25;;;;;;;7.37;73.87;99413.81;5066668;28;20368;-27
2023/04/03 03:22:23;;;;;;;8.00;3.38;;;;;;;7.58;73.10;99420.59;5066143;28;20028;-26
2023/04/03 03:24:49;;;;;;;8.80;5.00;;;;;;;7.68;72.91;99420.13;5066427;28;20028;-27
2023/04/03 03:27:15;;;;;;;7.93;3.50;;;;;;;7.44;72.61;99414.59;5066348;28;20107;-26
2023/04/03 03:29:41;;;;;;;7.78;3.85;;;;;;;7.53;73.43;99413.28;5066533;28;20093;-26
2023/04/03 03:32:07;;;;;;;6.35;3.58;;;;;;;7.33;74.16;99412.59;5066325;28;20036;-27
2023/04/03 03:34:33;;;;;;;9.13;3.80;;;;;;;7.14;74.97;99409.06;5066493;28;20017;-25
2023/04/03 03:36:58;;;;;;;113.32;36.67;;;;;;;6.97;75.69;99419.34;5066501;28;20033;-26
2023/04/03 03:39:23;;;;;;;185.60;55.35;;;;;;;7.14;75.55;99406.41;5065128;28;20024;-26
2023/04/03 03:41:49;;;;;;;63.70;23.92;;;;;;;7.55;74.00;99403.28;5066387;28;20029;-26
2023/04/03 03:44:15;;;;;;;33.33;14.45;;;;;;;6.77;76.67;99406.97;5065825;28;20025;-27
2023/04/03 03:46:40;;;;;;;9.32;4.70;;;;;;;6.13;80.60;99407.75;5066516;28;20063;-26
2023/04/03 03:49:06;;;;;;;115.88;52.53;;;;;;;6.12;80.36;99412.25;5065977;28;20404;-28
2023/04/03 03:51:31;;;;;;;95.35;48.25;;;;;;;6.86;77.34;99412.03;5066274;28;20089;-27
2023/04/03 03:53:57;;;;;;;21.77;13.38;;;;;;;7.04;75.92;99402.34;5066206;28;20603;-27
2023/04/03 03:56:22;;;;;;;15.40;7.03;;;;;;;7.06;76.01;99415.41;5066149;28;20029;-26
2023/04/03 03:58:49;;;;;;;20.50;8.60;;;;;;;7.51;73.94;99409.22;5066084;28;20048;-26
2023/04/03 04:01:15;;;;;;;9.63;5.70;;;;;;;7.58;73.30;99425.91;5065814;28;20543;-27
2023/04/03 04:03:40;;;;;;;16.45;7.53;;;;;;;7.49;74.15;99424.56;5065984;28;20039;-27
2023/04/03 04:06:06;;;;;;;17.75;8.73;;;;;;;7.56;72.95;99390.81;5065933;28;20032;-26
2023/04/03 04:08:31;;;;;;;16.17;8.95;;;;;;;7.69;72.45;99427.06;5066030;28;20033;-26
2023/04/03 04:10:57;;;;;;;41.60;24.98;;;;;;;7.34;74.14;99427.50;5065965;28;20823;-27
2023/04/03 04:13:23;;;;;;;55.17;27.02;;;;;;;7.55;72.76;99432.47;5066247;28;20024;-27
2023/04/03 04:15:48;;;;;;;38.22;19.08;;;;;;;7.13;74.60;99429.47;5065805;28;20037;-27
2023/04/03 04:18:14;;;;;;;40.25;19.42;;;;;;;7.24;74.37;99442.03;5065644;28;20064;-26
2023/04/03 04:20:39;;;;;;;31.95;16.20;;;;;;;7.21;74.17;99431.88;5065931;28;20109;-27
2023/04/03 04:23:05;;;;;;;27.42;14.68;;;;;;;6.89;75.80;99449.53;5065873;28;20040;-27
2023/04/03 04:25:30;;;;;;;27.90;14.18;;;;;;;7.32;73.94;99464.03;5065965;28;20082;-26
2023/04/03 04:27:56;;;;;;;22.70;11.38;;;;;;;7.49;73.16;99470.47;5065845;28;20036;-26
2023/04/03 04:30:21;;;;;;;25.30;22.80;;;;;;;7.37;73.14;99466.88;5065413;28;20020;-28
2023/04/03 04:32:47;;;;;;;14.93;10.85;;;;;;;7.39;73.01;99465.63;5065997;28;20024;-27
2023/04/03 04:35:12;;;;;;;11.05;8.07;;;;;;;7.40;74.04;99472.56;5065759;28;20107;-26
2023/04/03 04:37:37;;;;;;;12.65;7.03;;;;;;;7.54;73.94;99477.78;5065591;28;20028;-27
2023/04/03 04:40:03;;;;;;;12.48;7.93;;;;;;;7.15;76.09;99479.59;5065609;28;20051;-28
2023/04/03 04:42:29;;;;;;;12.65;7.93;;;;;;;7.53;75.34;99486.78;5065779;28;20036;-25
2023/04/03 04:44:54;;;;;;;12.30;7.70;;;;;;;7.71;74.42;99478.91;5065613;28;20029;-26
2023/04/03 04:47:20;;;;;;;12.68;6.70;;;;;;;7.95;73.64;99476.50;5065626;28;20162;-27
2023/04/03 04:49:47;;;;;;;11.20;6.45;;;;;;;7.77;74.54;99474.59;5066507;28;20500;-27
2023/04/03 04:52:13;;;;;;;13.15;6.60;;;;;;;7.94;74.36;99473.03;5069213;28;20025;-27
2023/04/03 04:54:38;;;;;;;9.80;6.32;;;;;;;8.34;73.01;99461.25;5069008;28;20339;-27
2023/04/03 04:57:03;;;;;;;15.57;7.10;;;;;;;8.14;73.52;99462.25;5069161;28;20062;-27
2023/04/03 04:59:29;;;;;;;13.00;6.68;;;;;;;8.34;73.35;99471.88;5068712;28;20027;-27
2023/04/03 05:01:54;;;;;;;17.15;7.97;;;;;;;8.31;74.01;99467.81;5069051;28;20039;-29
2023/04/03 05:04:20;;;;;;;20.00;12.25;;;;;;;8.54;73.99;99467.22;5068922;28;20032;-26
2023/04/03 05:06:46;;;;;;;13.05;8.45;;;;;;;8.63;72.38;99455.25;5068789;28;20029;-27
2023/04/03 05:09:12;;;;;;;12.10;7.40;;;;;;;8.89;70.49;99465.81;5068908;28;20500;-27
2023/04/03 05:11:37;;;;;;;10.13;5.80;;;;;;;8.98;70.49;99467.16;5068701;28;20028;-27
2023/04/03 05:14:05;;;;;;;9.73;6.28;;;;;;;9.14;70.54;99460.41;5068803;28;20059;-26
2023/04/03 05:16:30;;;;;;;9.73;6.50;;;;;;;9.18;70.50;99466.91;5068986;28;20032;-27
2023/04/03 05:18:56;;;;;;;13.13;6.20;;;;;;;8.99;72.98;99474.06;5068661;28;20039;-26
2023/04/03 05:21:23;;;;;;;14.27;8.30;;;;;;;8.60;74.43;99486.78;5068734;28;20158;-27
2023/04/03 05:23:48;;;;;;;18.05;11.02;;;;;;;8.56;75.36;99493.56;5068650;28;20097;-27
2023/04/03 05:26:13;;;;;;;22.88;13.90;;;;;;;8.62;74.63;99488.19;5068527;28;20107;-27
2023/04/03 05:28:39;;;;;;;29.55;16.48;;;;;;;8.59;74.45;99490.47;5068547;28;20029;-27
2023/04/03 05:31:04;;;;;;;29.90;16.63;;;;;;;8.34;77.54;99487.81;5068686;28;20035;-27
2023/04/03 05:33:30;;;;;;;18.73;11.63;;;;;;;8.17;77.92;99492.84;5068119;28;20039;-27
2023/04/03 05:35:55;;;;;;;20.55;11.73;;;;;;;8.40;76.80;99494.94;5068346;28;20032;-27
2023/04/03 05:38:21;;;;;;;20.20;11.45;;;;;;;8.33;76.83;99496.81;5068194;28;20048;-27
2023/04/03 05:40:46;;;;;;;11.15;6.53;;;;;;;8.52;75.29;99495.03;5068293;28;20028;-27
2023/04/03 05:43:12;;;;;;;10.85;7.05;;;;;;;8.88;73.44;99496.09;5068536;28;20028;-27
2023/04/03 05:45:38;;;;;;;10.40;7.95;;;;;;;8.84;73.96;99487.75;5068077;28;20584;-27
2023/04/03 05:48:03;;;;;;;14.32;7.72;;;;;;;8.93;75.76;99501.56;5068255;28;20031;-27
2023/04/03 05:50:30;;;;;;;9.75;5.65;;;;;;;8.50;77.15;99500.59;5067933;28;20024;-27
2023/04/03 05:52:58;;;;;;;7.95;4.63;;;;;;;8.44;76.97;99472.22;5068320;28;20037;-27
2023/04/03 05:55:23;;;;;;;6.45;4.07;;;;;;;8.51;76.83;99515.50;5067984;28;20096;-27
2023/04/03 05:57:49;;;;;;;11.00;5.72;;;;;;;8.73;77.29;99523.88;5068177;28;20486;-27
2023/04/03 06:00:15;;;;;;;9.27;5.97;;;;;;;8.90;77.35;99528.59;5067790;28;20051;-27
2023/04/03 06:02:41;;;;;;;13.00;7.70;;;;;;;9.17;77.44;99539.75;5067327;28;20024;-27
2023/04/03 06:05:08;;;;;;;18.35;9.13;;;;;;;9.04;78.13;99536.22;5067552;28;20027;-27
2023/04/03 06:07:35;;;;;;;12.18;7.57;;;;;;;8.96;75.00;99527.72;5067804;28;20036;-27
2023/04/03 06:10:01;;;;;;;13.15;8.15;;;;;;;9.20;75.04;99524.16;5067648;28;20032;-27
2023/04/03 06:12:28;;;;;;;13.68;8.55;;;;;;;9.43;73.42;99522.66;5067523;28;20078;-27
2023/04/03 06:14:54;;;;;;;13.87;8.40;;;;;;;9.47;72.49;99517.72;5067704;28;20085;-27
2023/04/03 06:17:20;;;;;;;13.75;9.05;;;;;;;9.48;72.54;99517.50;5067649;28;20032;-27
2023/04/03 06:19:45;;;;;;;13.73;9.05;;;;;;;9.23;74.09;99518.41;5067716;28;20434;-27
2023/04/03 06:22:11;;;;;;;15.52;10.02;;;;;;;9.51;73.19;99517.03;5067504;28;20039;-26
2023/04/03 06:24:37;;;;;;;12.90;9.07;;;;;;;9.79;72.08;99526.28;5049363;28;20028;-26
2023/04/03 06:27:04;;;;;;;15.38;9.40;;;;;;;9.86;71.27;99527.00;5067472;28;20173;-27
2023/04/03 06:29:30;;;;;;;16.30;9.32;;;;;;;9.82;72.28;99528.47;5067607;28;20491;-28
2023/04/03 06:31:55;;;;;;;16.02;10.98;;;;;;;9.93;72.54;99522.38;5067497;28;20024;-26
2023/04/03 06:34:21;;;;;;;19.25;14.18;;;;;;;9.90;71.14;99522.84;5067209;28;20035;-27
2023/04/03 06:36:47;;;;;;;18.02;14.27;;;;;;;9.94;72.76;99523.19;5067368;28;20089;-26
2023/04/03 06:39:21;;;;;;;23.95;16.80;;;;;;;10.22;71.25;99519.91;5067237;28;20064;-27
2023/04/03 06:41:46;;;;;;;23.27;16.83;;;;;;;10.38;70.26;99519.25;5067146;28;20040;-27
2023/04/03 06:44:15;;;;;;;23.63;16.60;;;;;;;10.79;68.95;99508.69;5066944;28;20025;-27
2023/04/03 06:46:40;;;;;;;18.63;14.25;;;;;;;10.68;68.19;99498.84;5067069;28;20028;-25
2023/04/03 06:49:09;;;;;;;19.88;14.80;;;;;;;11.12;67.25;99508.03;5066979;28;20738;-27
2023/04/03 06:51:35;;;;;;;;;;;;;;;10.95;68.30;99505.31;5067290;28;20021;-28
2023/04/03 06:54:01;;;;;;;18.80;13.70;;;;;;;10.98;68.23;99506.69;5067066;28;19908;-27
2023/04/03 06:56:27;;;;;;;20.77;13.23;;;;;;;11.08;67.19;99514.91;5066912;28;20020;-28
2023/04/03 06:58:57;;;;;;;17.48;12.65;;;;;;;11.70;64.77;99513.41;5065874;28;20032;-27
2023/04/03 07:01:26;;;;;;;19.63;13.50;;;;;;;11.91;63.84;99498.56;5065427;28;20036;-27
2023/04/03 07:03:51;;;;;;;20.10;13.52;;;;;;;12.25;63.39;99520.78;5065282;28;20020;-27
2023/04/03 07:06:18;;;;;;;18.15;12.55;;;;;;;12.33;63.72;99528.41;5065647;28;20033;-27
2023/04/03 07:08:44;;;;;;;20.05;11.93;;;;;;;12.50;62.83;99533.75;5065379;28;20588;-27
2023/04/03 07:11:10;;;;;;;19.55;14.63;;;;;;;12.63;62.80;99527.25;5065476;28;20024;-27
2023/04/03 07:13:36;;;;;;;20.50;14.77;;;;;;;12.43;63.63;99535.78;5065524;28;20029;-27
2023/04/03 07:16:04;;;;;;;18.58;14.65;;;;;;;12.46;63.77;99533.44;5064887;28;20025;-27
2023/04/03 07:18:30;;;;;;;21.88;14.60;;;;;;;12.73;62.48;99543.47;5065218;28;20035;-27
2023/04/03 07:20:55;;;;;;;17.70;12.68;;;;;;;12.86;61.33;99543.09;5065538;28;20020;-27
2023/04/03 07:23:23;;;;;;;14.93;10.52;;;;;;;12.82;61.94;99552.66;5065384;28;20021;-27
2023/04/03 07:25:51;;;;;;;17.58;10.18;;;;;;;12.80;61.45;99536.06;5065276;28;20130;-27
2023/04/03 07:28:18;;;;;;;8.90;5.87;;;;;;;12.91;61.87;99565.63;5065144;28;20028;-27
2023/04/03 07:30:48;;;;;;;10.95;5.93;;;;;;;13.03;60.48;99563.66;5065677;28;20100;-29
2023/04/03 07:33:16;;;;;;;9.30;6.40;;;;;;;12.79;62.39;99555.03;5065972;28;20033;-27
2023/04/03 07:35:42;;;;;;;8.40;4.70;;;;;;;12.97;61.41;99559.28;5066103;28;20047;-27
2023/04/03 07:38:07;;;;;;;10.90;5.57;;;;;;;13.25;60.22;99556.44;5065949;28;20056;-27
2023/04/03 07:40:33;;;;;;;7.72;4.90;;;;;;;13.32;60.04;99555.50;5066095;28;20052;-27
2023/04/03 07:42:59;;;;;;;10.20;5.63;;;;;;;13.23;61.26;99552.41;5066297;28;20025;-27
2023/04/03 07:45:25;;;;;;;12.82;6.30;;;;;;;13.14;62.37;99543.22;5065906;28;20178;-27
2023/04/03 07:47:51;;;;;;;36.47;17.50;;;;;;;13.22;63.45;99542.78;5065664;28;20043;-27
2023/04/03 07:50:17;;;;;;;14.02;6.88;;;;;;;13.16;64.04;99541.09;5065705;28;20024;-27
2023/04/03 07:52:43;;;;;;;10.07;4.93;;;;;;;12.98;62.81;99537.63;5066153;28;20025;-28
2023/04/03 07:55:08;;;;;;;12.35;7.25;;;;;;;13.36;61.39;99538.69;5066061;28;20039;-27
2023/04/03 07:57:34;;;;;;;7.88;5.03;;;;;;;13.20;61.64;99532.31;5065959;28;20039;-27
2023/04/03 07:59:59;;;;;;;8.95;5.05;;;;;;;13.52;60.07;99528.13;5066030;28;20487;-28
2023/04/03 08:02:25;;;;;;;21.58;11.98;;;;;;;13.85;59.75;99532.50;5066022;28;20490;-27
2023/04/03 08:04:50;;;;;;;14.52;5.60;;;;;;;14.18;58.55;99530.63;5066290;28;20028;-27
2023/04/03 08:07:16;;;;;;;9.38;4.53;;;;;;;14.33;58.74;99517.34;5065816;28;20032;-27
2023/04/03 08:09:41;;;;;;;9.30;3.90;;;;;;;14.54;56.63;99517.50;5066186;28;20750;-28
2023/04/03 08:12:07;;;;;;;7.63;3.58;;;;;;;14.55;57.07;99524.50;5065668;28;20831;-27
2023/04/03 08:14:34;;;;;;;12.52;6.22;;;;;;;14.99;56.11;99518.84;5065743;28;20028;-27
2023/04/03 08:17:00;;;;;;;8.93;4.20;;;;;;;14.91;56.52;99512.09;5065862;28;20032;-27
2023/04/03 08:19:26;;;;;;;6.03;3.40;;;;;;;15.24;56.49;99505.56;5065998;28;20090;-27
2023/04/03 08:21:51;;;;;;;6.97;3.13;;;;;;;15.44;55.33;99504.00;5065847;28;20025;-27
2023/04/03 08:24:17;;;;;;;5.65;3.15;;;;;;;15.46;54.33;99499.16;5065843;28;20468;-28
2023/04/03 08:26:42;;;;;;;6.32;2.92;;;;;;;15.33;54.12;99492.41;5069783;28;20458;-27
2023/04/03 08:29:08;;;;;;;4.25;2.60;;;;;;;14.92;53.71;99496.81;5069403;28;20039;-26
2023/04/03 08:31:33;;;;;;;5.78;3.42;;;;;;;15.04;54.10;99495.53;5069536;28;20032;-27
2023/04/03 08:33:59;;;;;;;6.53;3.00;;;;;;;14.98;53.67;99498.47;5069457;28;20461;-27
2023/04/03 08:36:27;;;;;;;5.00;2.58;;;;;;;14.93;53.90;99487.69;5069355;28;20504;-27
2023/04/03 08:38:54;;;;;;;5.20;3.15;;;;;;;15.07;53.68;99483.44;5069535;28;20017;-27
2023/04/03 08:41:33;;;;;;;5.03;2.72;;;;;;;15.43;51.05;99481.69;5069724;28;20025;-28
2023/04/03 08:44:31;;;;;;;4.88;2.95;;;;;;;15.56;51.63;99483.06;5069437;28;20029;-27
2023/04/03 08:47:20;;;;;;;5.07;2.80;;;;;;;15.41;53.00;99477.66;5069641;28;20024;-27
2023/04/03 08:49:51;;;;;;;5.80;3.20;;;;;;;15.43;52.52;99465.56;5048674;28;20024;-27
2023/04/03 08:52:41;;;;;;;7.47;3.65;;;;;;;15.64;53.23;99477.16;5049522;28;20037;-27
2023/04/03 08:55:23;;;;;;;6.47;3.50;;;;;;;15.56;52.68;99469.63;5063952;28;20024;-27
2023/04/03 08:57:57;;;;;;;8.90;4.20;;;;;;;15.33;53.85;99465.53;5050965;28;20412;-27
2023/04/03 09:00:25;;;;;;;9.63;4.38;;;;;;;15.42;53.24;99468.50;5068657;28;20040;-27
2023/04/03 09:02:53;;;;;;;9.13;5.07;;;;;;;15.64;52.12;99474.47;5068793;28;20547;-27
2023/04/03 09:05:24;;;;;;;9.02;4.43;;;;;;;15.62;52.96;99468.56;5069130;28;20036;-27
2023/04/03 09:08:19;;;;;;;9.85;4.68;;;;;;;15.89;51.00;99466.72;5068730;28;20139;-27
2023/04/03 09:10:45;;;;;;;8.00;4.40;;;;;;;15.86;51.04;99473.47;5033510;28;20110;-26
2023/04/03 09:13:19;;;;;;;10.23;5.53;;;;;;;16.09;51.28;99460.56;5069077;28;20082;-27
2023/04/03 09:15:45;;;;;;;17.65;9.55;;;;;;;16.20;55.40;99462.13;5068804;28;20036;-27
2023/04/03 09:18:22;;;;;;;10.43;4.85;;;;;;;16.16;53.34;99444.94;5068943;28;20035;-27
2023/04/03 09:21:00;;;;;;;9.20;4.27;;;;;;;15.96;50.70;99457.31;5068915;28;20063;-27
2023/04/03 09:23:55;;;;;;;11.55;4.93;;;;;;;15.82;52.14;99459.75;5068659;28;20039;-29
2023/04/03 09:26:29;;;;;;;7.18;4.30;;;;;;;15.78;51.98;99439.03;5065134;28;20028;-27
2023/04/03 09:28:58;;;;;;;7.40;4.30;;;;;;;15.74;53.34;99465.66;5068783;28;20028;-27
2023/04/03 09:31:26;;;;;;;10.25;5.25;;;;;;;15.45;52.83;99441.94;5068183;28;20036;-27
2023/04/03 09:34:21;;;;;;;12.05;6.53;;;;;;;15.55;53.84;99454.59;5068373;28;20029;-28
2023/04/03 09:36:53;;;;;;;12.40;6.22;;;;;;;15.25;54.30;99463.38;5066967;28;20028;-27
2023/04/03 09:39:21;;;;;;;10.88;5.70;;;;;;;15.11;55.64;99455.00;5068259;28;20039;-27
2023/04/03 09:42:01;;;;;;;11.07;5.43;;;;;;;14.93;57.32;99450.91;5068801;28;20020;-27
2023/04/03 09:44:32;;;;;;;6.43;3.72;;;;;;;14.84;58.69;99466.72;5067975;28;20040;-27
2023/04/03 09:46:58;;;;;;;6.32;3.10;;;;;;;14.47;59.49;99470.25;5068118;28;20135;-27
2023/04/03 09:49:24;;;;;;;6.32;2.70;;;;;;;14.52;59.67;99474.03;5068322;28;20150;-27
2023/04/03 09:51:50;;;;;;;5.82;2.50;;;;;;;14.49;59.63;99458.47;5068077;28;20103;-28
2023/04/03 09:54:39;;;;;;;7.40;2.90;;;;;;;14.44;60.12;99454.69;5068001;28;20028;-27
2023/04/03 09:57:14;;;;;;;9.35;4.90;;;;;;;14.46;60.88;99449.88;5068165;28;20106;-27
2023/04/03 10:00:01;;;;;;;10.55;4.97;;;;;;;13.98;59.83;99419.50;5067731;28;20581;-28
2023/04/03 10:02:37;;;;;;;10.80;5.60;;;;;;;14.47;61.82;99454.16;5067838;28;20186;-27
2023/04/03 10:05:24;;;;;;;67.28;36.22;;;;;;;14.55;60.70;99452.06;5067498;28;20025;-27
2023/04/03 10:07:50;;;;;;;12.65;6.68;;;;;;;14.58;59.43;99446.19;5067393;28;20415;-28
2023/04/03 10:10:20;;;;;;;37.63;19.08;;;;;;;14.22;58.83;99429.84;5067758;28;20028;-27
2023/04/03 10:12:49;;;;;;;8.15;4.60;;;;;;;14.42;59.25;99435.31;5067718;28;20036;-27
2023/04/03 10:15:19;;;;;;;9.73;4.30;;;;;;;14.24;59.39;99425.84;5049429;28;20032;-27
2023/04/03 10:18:18;;;;;;;8.65;3.70;;;;;;;14.30;59.88;99432.03;5067669;28;20111;-27
2023/04/03 10:20:46;;;;;;;6.43;3.45;;;;;;;14.11;60.66;99425.47;5067695;28;20033;-27
2023/04/03 10:23:24;;;;;;;6.05;3.28;;;;;;;14.19;61.25;99419.63;5067267;28;20028;-27
2023/04/03 10:26:10;;;;;;;11.05;4.80;;;;;;;14.40;62.22;99426.72;5067376;28;20520;-28
2023/04/03 10:29:04;;;;;;;10.52;3.92;;;;;;;14.30;63.22;99423.19;5067199;28;20119;-27
2023/04/03 10:31:48;;;;;;;9.38;4.20;;;;;;;14.31;64.52;99427.50;5067307;28;20028;-27
2023/04/03 10:34:37;;;;;;;11.07;4.30;;;;;;;14.21;64.75;99428.22;5067244;28;20028;-29
2023/04/03 10:37:08;;;;;;;10.52;4.80;;;;;;;14.24;65.69;99425.03;5067280;28;20020;-28
2023/04/03 10:39:43;;;;;;;9.23;4.93;;;;;;;13.97;65.52;99423.22;5067313;28;20127;-27
2023/04/03 10:42:35;;;;;;;28.98;11.38;;;;;;;14.34;65.06;99411.66;5067093;28;20036;-27
2023/04/03 10:45:26;;;;;;;44.65;16.60;;;;;;;14.57;62.82;99420.44;5067130;28;20025;-27
2023/04/03 10:48:11;;;;;;;10.95;5.28;;;;;;;14.31;63.88;99417.56;5066618;28;20699;-27
2023/04/03 10:50:59;;;;;;;11.82;5.78;;;;;;;14.66;64.66;99424.22;5066787;28;20030;-27
2023/04/03 10:53:46;;;;;;;14.55;6.78;;;;;;;14.72;65.76;99423.19;5055594;28;20512;-27
2023/04/03 10:56:14;;;;;;;18.05;7.70;;;;;;;14.82;64.99;99423.22;5066669;28;20032;-27
2023/04/03 10:58:43;;;;;;;13.77;7.57;;;;;;;15.05;66.28;99426.53;5065475;28;20032;-27
2023/04/03 11:01:14;;;;;;;12.98;5.85;;;;;;;14.64;66.33;99418.31;5066382;28;20040;-27
2023/04/03 11:03:44;;;;;;;11.30;5.00;;;;;;;14.50;66.79;99403.72;5066783;28;20060;-27
2023/04/03 11:06:16;;;;;;;19.92;7.85;;;;;;;14.37;68.40;99410.38;5066778;28;20024;-27
2023/04/03 11:09:01;;;;;;;12.25;5.97;;;;;;;14.83;68.06;99432.91;5066782;28;20737;-27
2023/04/03 11:11:32;;;;;;;15.35;8.68;;;;;;;14.71;70.55;99428.78;5066073;28;20077;-27
2023/04/03 11:14:08;;;;;;;12.93;5.22;;;;;;;14.68;70.42;99422.09;5066464;28;20029;-27
2023/04/03 11:16:41;;;;;;;16.23;8.63;;;;;;;14.54;67.80;99426.28;5066386;28;20522;-27
2023/04/03 11:19:33;;;;;;;8.68;4.82;;;;;;;14.36;67.91;99412.22;5066600;28;20182;-27
2023/04/03 11:22:23;;;;;;;10.90;5.63;;;;;;;14.67;67.59;99399.00;5066330;28;20144;-27
2023/04/03 11:25:16;;;;;;;14.25;9.15;;;;;;;14.48;67.80;99401.28;5066736;28;20090;-27
2023/04/03 11:27:48;;;;;;;10.02;4.80;;;;;;;14.82;70.97;99420.53;5066426;28;20523;-27
2023/04/03 11:30:25;;;;;;;11.50;6.22;;;;;;;14.71;72.29;99389.38;5066244;28;20032;-27
2023/04/03 11:33:02;;;;;;;14.75;9.35;;;;;;;14.80;70.96;99397.72;5066468;28;20021;-27
2023/04/03 11:35:28;;;;;;;21.20;12.52;;;;;;;14.79;70.33;99406.81;5066519;28;20051;-27
2023/04/03 11:37:55;;;;;;;14.20;5.22;;;;;;;14.62;70.03;99410.50;5066274;28;20032;-27
2023/04/03 11:40:34;;;;;;;11.00;5.25;;;;;;;14.49;72.22;99392.19;5066416;28;20031;-27